sensor_id;sensor_type;location;lat;lon;timestamp;P1;durP1;ratioP1;P2;durP2;ratioP2
30048;SDS011;16879;50.852;15.602;2022-07-22T00:01:20;6.80;;;6.22;;
30048;SDS011;16879;50.852;15.602;2022-07-22T00:03:46;6.40;;;5.75;;
30048;SDS011;16879;50.852;15.602;2022-07-22T00:06:12;9.57;;;6.78;;
30048;SDS011;16879;50.852;15.602;2022-07-22T00:08:38;6.38;;;5.78;;
30048;SDS011;16879;50.852;15.602;2022-07-22T00:11:04;6.18;;;5.55;;
30048;SDS011;16879;50.852;15.602;2022-07-22T00:13:30;6.53;;;5.93;;
30048;SDS011;16879;50.852;15.602;2022-07-22T00:15:57;6.93;;;6.30;;
30048;SDS011;16879;50.852;15.602;2022-07-22T00:18:23;6.90;;;6.18;;
30048;SDS011;16879;50.852;15.602;2022-07-22T00:20:49;6.50;;;5.90;;
30048;SDS011;16879;50.852;15.602;2022-07-22T00:23:14;5.45;;;4.95;;
30048;SDS011;16879;50.852;15.602;2022-07-22T00:25:41;7.15;;;5.00;;
30048;SDS011;16879;50.852;15.602;2022-07-22T00:28:07;5.43;;;4.93;;
30048;SDS011;16879;50.852;15.602;2022-07-22T00:30:33;6.68;;;6.07;;
30048;SDS011;16879;50.852;15.602;2022-07-22T00:32:59;7.75;;;6.97;;
30048;SDS011;16879;50.852;15.602;2022-07-22T00:35:24;9.82;;;7.75;;
30048;SDS011;16879;50.852;15.602;2022-07-22T00:37:50;7.97;;;7.18;;
30048;SDS011;16879;50.852;15.602;2022-07-22T00:40:16;7.07;;;6.47;;
30048;SDS011;16879;50.852;15.602;2022-07-22T00:42:43;7.55;;;6.85;;
30048;SDS011;16879;50.852;15.602;2022-07-22T00:45:09;7.90;;;7.00;;
30048;SDS011;16879;50.852;15.602;2022-07-22T00:47:36;8.43;;;7.32;;
30048;SDS011;16879;50.852;15.602;2022-07-22T00:50:04;9.73;;;8.68;;
30048;SDS011;16879;50.852;15.602;2022-07-22T00:52:32;8.63;;;7.53;;
30048;SDS011;16879;50.852;15.602;2022-07-22T00:54:59;8.73;;;7.93;;
30048;SDS011;16879;50.852;15.602;2022-07-22T00:57:26;9.07;;;8.18;;
30048;SDS011;16879;50.852;15.602;2022-07-22T00:59:54;8.20;;;7.40;;
30048;SDS011;16879;50.852;15.602;2022-07-22T01:02:20;8.38;;;7.57;;
30048;SDS011;16879;50.852;15.602;2022-07-22T01:04:46;9.00;;;8.10;;
30048;SDS011;16879;50.852;15.602;2022-07-22T01:07:12;8.65;;;7.85;;
30048;SDS011;16879;50.852;15.602;2022-07-22T01:09:37;9.65;;;7.90;;
30048;SDS011;16879;50.852;15.602;2022-07-22T01:12:10;8.93;;;7.82;;
30048;SDS011;16879;50.852;15.602;2022-07-22T01:14:37;10.48;;;9.00;;
30048;SDS011;16879;50.852;15.602;2022-07-22T01:17:03;8.93;;;8.00;;
30048;SDS011;16879;50.852;15.602;2022-07-22T01:19:29;10.30;;;9.27;;
30048;SDS011;16879;50.852;15.602;2022-07-22T01:21:55;10.70;;;9.75;;
30048;SDS011;16879;50.852;15.602;2022-07-22T01:24:21;10.35;;;8.77;;
30048;SDS011;16879;50.852;15.602;2022-07-22T01:26:47;10.32;;;9.43;;
30048;SDS011;16879;50.852;15.602;2022-07-22T01:29:13;8.98;;;8.18;;
30048;SDS011;16879;50.852;15.602;2022-07-22T01:31:39;8.88;;;8.18;;
30048;SDS011;16879;50.852;15.602;2022-07-22T01:34:05;9.68;;;7.90;;
30048;SDS011;16879;50.852;15.602;2022-07-22T01:36:30;9.90;;;8.95;;
30048;SDS011;16879;50.852;15.602;2022-07-22T01:38:56;9.55;;;8.70;;
30048;SDS011;16879;50.852;15.602;2022-07-22T01:41:22;9.40;;;7.82;;
30048;SDS011;16879;50.852;15.602;2022-07-22T01:43:48;9.68;;;8.68;;
30048;SDS011;16879;50.852;15.602;2022-07-22T01:46:14;9.25;;;8.40;;
30048;SDS011;16879;50.852;15.602;2022-07-22T01:48:42;8.77;;;8.07;;
30048;SDS011;16879;50.852;15.602;2022-07-22T01:51:08;10.10;;;9.15;;
30048;SDS011;16879;50.852;15.602;2022-07-22T01:53:33;10.90;;;9.93;;
30048;SDS011;16879;50.852;15.602;2022-07-22T01:55:59;9.85;;;8.43;;
30048;SDS011;16879;50.852;15.602;2022-07-22T01:58:25;9.98;;;9.07;;
30048;SDS011;16879;50.852;15.602;2022-07-22T02:00:51;10.02;;;8.98;;
30048;SDS011;16879;50.852;15.602;2022-07-22T02:03:17;10.13;;;8.57;;
30048;SDS011;16879;50.852;15.602;2022-07-22T02:05:43;9.82;;;8.85;;
30048;SDS011;16879;50.852;15.602;2022-07-22T02:08:10;10.13;;;9.13;;
30048;SDS011;16879;50.852;15.602;2022-07-22T02:10:37;9.80;;;8.80;;
30048;SDS011;16879;50.852;15.602;2022-07-22T02:13:03;9.90;;;9.02;;
30048;SDS011;16879;50.852;15.602;2022-07-22T02:15:30;9.85;;;8.90;;
30048;SDS011;16879;50.852;15.602;2022-07-22T02:17:56;10.57;;;9.68;;
30048;SDS011;16879;50.852;15.602;2022-07-22T02:20:21;11.55;;;9.90;;
30048;SDS011;16879;50.852;15.602;2022-07-22T02:22:47;9.10;;;8.23;;
30048;SDS011;16879;50.852;15.602;2022-07-22T02:25:14;10.00;;;9.07;;
30048;SDS011;16879;50.852;15.602;2022-07-22T02:27:40;10.45;;;9.50;;
30048;SDS011;16879;50.852;15.602;2022-07-22T02:30:07;9.73;;;8.77;;
30048;SDS011;16879;50.852;15.602;2022-07-22T02:32:34;9.90;;;8.88;;
30048;SDS011;16879;50.852;15.602;2022-07-22T02:35:00;8.18;;;7.47;;
30048;SDS011;16879;50.852;15.602;2022-07-22T02:37:27;8.85;;;7.95;;
30048;SDS011;16879;50.852;15.602;2022-07-22T02:39:53;8.00;;;7.28;;
30048;SDS011;16879;50.852;15.602;2022-07-22T02:42:19;8.40;;;7.63;;
30048;SDS011;16879;50.852;15.602;2022-07-22T02:44:44;8.48;;;7.78;;
30048;SDS011;16879;50.852;15.602;2022-07-22T02:47:10;9.57;;;8.57;;
30048;SDS011;16879;50.852;15.602;2022-07-22T02:49:36;9.40;;;8.50;;
30048;SDS011;16879;50.852;15.602;2022-07-22T02:52:02;8.23;;;7.43;;
30048;SDS011;16879;50.852;15.602;2022-07-22T02:54:28;9.70;;;8.75;;
30048;SDS011;16879;50.852;15.602;2022-07-22T02:56:54;10.77;;;9.68;;
30048;SDS011;16879;50.852;15.602;2022-07-22T02:59:20;9.48;;;8.68;;
30048;SDS011;16879;50.852;15.602;2022-07-22T03:01:45;10.63;;;9.20;;
30048;SDS011;16879;50.852;15.602;2022-07-22T03:04:13;10.80;;;9.80;;
30048;SDS011;16879;50.852;15.602;2022-07-22T03:06:38;8.80;;;7.90;;
30048;SDS011;16879;50.852;15.602;2022-07-22T03:09:04;10.27;;;9.27;;
30048;SDS011;16879;50.852;15.602;2022-07-22T03:11:30;9.93;;;8.88;;
30048;SDS011;16879;50.852;15.602;2022-07-22T03:13:56;9.35;;;8.55;;
30048;SDS011;16879;50.852;15.602;2022-07-22T03:16:22;8.80;;;7.93;;
30048;SDS011;16879;50.852;15.602;2022-07-22T03:18:47;9.80;;;8.82;;
30048;SDS011;16879;50.852;15.602;2022-07-22T03:21:13;9.05;;;8.13;;
30048;SDS011;16879;50.852;15.602;2022-07-22T03:23:40;12.13;;;9.00;;
30048;SDS011;16879;50.852;15.602;2022-07-22T03:26:05;9.68;;;8.77;;
30048;SDS011;16879;50.852;15.602;2022-07-22T03:28:32;10.75;;;9.70;;
30048;SDS011;16879;50.852;15.602;2022-07-22T03:30:58;8.95;;;8.07;;
30048;SDS011;16879;50.852;15.602;2022-07-22T03:33:23;8.68;;;7.88;;
30048;SDS011;16879;50.852;15.602;2022-07-22T03:35:49;9.70;;;8.70;;
30048;SDS011;16879;50.852;15.602;2022-07-22T03:38:15;10.52;;;9.07;;
30048;SDS011;16879;50.852;15.602;2022-07-22T03:40:41;8.82;;;7.93;;
30048;SDS011;16879;50.852;15.602;2022-07-22T03:43:07;14.10;;;8.43;;
30048;SDS011;16879;50.852;15.602;2022-07-22T03:45:33;9.77;;;8.98;;
30048;SDS011;16879;50.852;15.602;2022-07-22T03:47:59;9.18;;;8.27;;
30048;SDS011;16879;50.852;15.602;2022-07-22T03:50:25;10.07;;;8.55;;
30048;SDS011;16879;50.852;15.602;2022-07-22T03:52:51;8.80;;;8.05;;
30048;SDS011;16879;50.852;15.602;2022-07-22T03:55:17;9.20;;;8.32;;
30048;SDS011;16879;50.852;15.602;2022-07-22T03:57:42;9.75;;;8.85;;
30048;SDS011;16879;50.852;15.602;2022-07-22T04:00:08;9.48;;;8.48;;
30048;SDS011;16879;50.852;15.602;2022-07-22T04:02:34;10.80;;;8.07;;
30048;SDS011;16879;50.852;15.602;2022-07-22T04:05:00;9.15;;;8.25;;
30048;SDS011;16879;50.852;15.602;2022-07-22T04:07:26;9.18;;;8.27;;
30048;SDS011;16879;50.852;15.602;2022-07-22T04:09:51;8.75;;;7.95;;
30048;SDS011;16879;50.852;15.602;2022-07-22T04:12:31;8.38;;;7.57;;
30048;SDS011;16879;50.852;15.602;2022-07-22T04:14:58;7.57;;;6.85;;
30048;SDS011;16879;50.852;15.602;2022-07-22T04:17:24;8.00;;;7.25;;
30048;SDS011;16879;50.852;15.602;2022-07-22T04:19:49;8.93;;;7.50;;
30048;SDS011;16879;50.852;15.602;2022-07-22T04:22:15;10.82;;;7.95;;
30048;SDS011;16879;50.852;15.602;2022-07-22T04:24:41;9.63;;;7.03;;
30048;SDS011;16879;50.852;15.602;2022-07-22T04:27:07;8.00;;;7.28;;
30048;SDS011;16879;50.852;15.602;2022-07-22T04:29:33;8.73;;;7.30;;
30048;SDS011;16879;50.852;15.602;2022-07-22T04:31:58;7.95;;;7.25;;
30048;SDS011;16879;50.852;15.602;2022-07-22T04:34:25;7.85;;;7.13;;
30048;SDS011;16879;50.852;15.602;2022-07-22T04:36:50;8.38;;;6.85;;
30048;SDS011;16879;50.852;15.602;2022-07-22T04:39:16;8.48;;;6.60;;
30048;SDS011;16879;50.852;15.602;2022-07-22T04:41:43;9.80;;;6.40;;
30048;SDS011;16879;50.852;15.602;2022-07-22T04:44:09;8.05;;;6.82;;
30048;SDS011;16879;50.852;15.602;2022-07-22T04:46:36;7.57;;;6.78;;
30048;SDS011;16879;50.852;15.602;2022-07-22T04:49:05;7.00;;;6.00;;
30048;SDS011;16879;50.852;15.602;2022-07-22T04:51:31;8.43;;;6.72;;
30048;SDS011;16879;50.852;15.602;2022-07-22T04:53:56;17.27;;;7.18;;
30048;SDS011;16879;50.852;15.602;2022-07-22T04:56:22;6.95;;;6.25;;
30048;SDS011;16879;50.852;15.602;2022-07-22T04:58:48;9.75;;;6.80;;
30048;SDS011;16879;50.852;15.602;2022-07-22T05:01:14;6.47;;;5.88;;
30048;SDS011;16879;50.852;15.602;2022-07-22T05:03:40;7.47;;;6.35;;
30048;SDS011;16879;50.852;15.602;2022-07-22T05:06:06;9.00;;;6.13;;
30048;SDS011;16879;50.852;15.602;2022-07-22T05:08:32;7.15;;;6.00;;
30048;SDS011;16879;50.852;15.602;2022-07-22T05:10:58;6.82;;;5.95;;
30048;SDS011;16879;50.852;15.602;2022-07-22T05:13:24;7.18;;;6.47;;
30048;SDS011;16879;50.852;15.602;2022-07-22T05:15:50;8.95;;;6.40;;
30048;SDS011;16879;50.852;15.602;2022-07-22T05:18:16;6.05;;;5.45;;
30048;SDS011;16879;50.852;15.602;2022-07-22T05:20:42;6.18;;;5.57;;
30048;SDS011;16879;50.852;15.602;2022-07-22T05:23:09;6.78;;;5.32;;
30048;SDS011;16879;50.852;15.602;2022-07-22T05:25:40;7.13;;;6.25;;
30048;SDS011;16879;50.852;15.602;2022-07-22T05:28:06;6.97;;;6.22;;
30048;SDS011;16879;50.852;15.602;2022-07-22T05:30:32;5.82;;;5.32;;
30048;SDS011;16879;50.852;15.602;2022-07-22T05:32:58;5.72;;;5.32;;
30048;SDS011;16879;50.852;15.602;2022-07-22T05:35:24;5.93;;;5.25;;
30048;SDS011;16879;50.852;15.602;2022-07-22T05:37:52;6.00;;;5.47;;
30048;SDS011;16879;50.852;15.602;2022-07-22T05:40:18;5.53;;;5.03;;
30048;SDS011;16879;50.852;15.602;2022-07-22T05:42:44;6.20;;;5.68;;
30048;SDS011;16879;50.852;15.602;2022-07-22T05:45:10;5.07;;;4.57;;
30048;SDS011;16879;50.852;15.602;2022-07-22T05:47:36;5.65;;;5.15;;
30048;SDS011;16879;50.852;15.602;2022-07-22T05:50:04;6.63;;;5.85;;
30048;SDS011;16879;50.852;15.602;2022-07-22T05:52:31;5.93;;;4.85;;
30048;SDS011;16879;50.852;15.602;2022-07-22T05:54:59;5.88;;;5.28;;
30048;SDS011;16879;50.852;15.602;2022-07-22T05:57:25;5.38;;;4.88;;
30048;SDS011;16879;50.852;15.602;2022-07-22T05:59:51;7.03;;;6.32;;
30048;SDS011;16879;50.852;15.602;2022-07-22T06:02:17;5.00;;;4.57;;
30048;SDS011;16879;50.852;15.602;2022-07-22T06:04:43;6.45;;;5.90;;
30048;SDS011;16879;50.852;15.602;2022-07-22T06:07:09;6.55;;;5.90;;
30048;SDS011;16879;50.852;15.602;2022-07-22T06:09:35;8.15;;;5.90;;
30048;SDS011;16879;50.852;15.602;2022-07-22T06:12:00;7.88;;;6.25;;
30048;SDS011;16879;50.852;15.602;2022-07-22T06:14:26;7.93;;;6.03;;
30048;SDS011;16879;50.852;15.602;2022-07-22T06:16:52;8.43;;;6.38;;
30048;SDS011;16879;50.852;15.602;2022-07-22T06:19:18;6.78;;;6.10;;
30048;SDS011;16879;50.852;15.602;2022-07-22T06:21:44;7.18;;;6.10;;
30048;SDS011;16879;50.852;15.602;2022-07-22T06:24:10;7.40;;;6.70;;
30048;SDS011;16879;50.852;15.602;2022-07-22T06:26:35;6.72;;;6.13;;
30048;SDS011;16879;50.852;15.602;2022-07-22T06:29:01;7.50;;;6.20;;
30048;SDS011;16879;50.852;15.602;2022-07-22T06:31:28;8.27;;;6.28;;
30048;SDS011;16879;50.852;15.602;2022-07-22T06:33:54;6.47;;;5.85;;
30048;SDS011;16879;50.852;15.602;2022-07-22T06:36:19;5.07;;;4.68;;
30048;SDS011;16879;50.852;15.602;2022-07-22T06:38:45;5.95;;;4.80;;
30048;SDS011;16879;50.852;15.602;2022-07-22T06:41:11;5.25;;;4.57;;
30048;SDS011;16879;50.852;15.602;2022-07-22T06:43:38;5.95;;;5.18;;
30048;SDS011;16879;50.852;15.602;2022-07-22T06:46:05;5.47;;;4.97;;
30048;SDS011;16879;50.852;15.602;2022-07-22T06:48:30;6.07;;;5.47;;
30048;SDS011;16879;50.852;15.602;2022-07-22T06:50:56;5.90;;;5.40;;
30048;SDS011;16879;50.852;15.602;2022-07-22T06:53:22;7.30;;;4.93;;
30048;SDS011;16879;50.852;15.602;2022-07-22T06:55:48;5.72;;;5.22;;
30048;SDS011;16879;50.852;15.602;2022-07-22T06:58:14;8.48;;;5.50;;
30048;SDS011;16879;50.852;15.602;2022-07-22T07:00:39;5.20;;;4.80;;
30048;SDS011;16879;50.852;15.602;2022-07-22T07:03:05;5.93;;;5.32;;
30048;SDS011;16879;50.852;15.602;2022-07-22T07:05:31;8.10;;;5.80;;
30048;SDS011;16879;50.852;15.602;2022-07-22T07:07:57;6.20;;;5.68;;
30048;SDS011;16879;50.852;15.602;2022-07-22T07:10:23;6.32;;;5.75;;
30048;SDS011;16879;50.852;15.602;2022-07-22T07:12:49;6.55;;;5.85;;
30048;SDS011;16879;50.852;15.602;2022-07-22T07:15:15;6.25;;;5.70;;
30048;SDS011;16879;50.852;15.602;2022-07-22T07:17:40;7.55;;;6.85;;
30048;SDS011;16879;50.852;15.602;2022-07-22T07:20:06;9.20;;;7.20;;
30048;SDS011;16879;50.852;15.602;2022-07-22T07:22:33;8.55;;;7.10;;
30048;SDS011;16879;50.852;15.602;2022-07-22T07:25:03;9.15;;;8.25;;
30048;SDS011;16879;50.852;15.602;2022-07-22T07:27:29;9.35;;;8.45;;
30048;SDS011;16879;50.852;15.602;2022-07-22T07:29:55;8.23;;;7.47;;
30048;SDS011;16879;50.852;15.602;2022-07-22T07:32:21;8.82;;;7.85;;
30048;SDS011;16879;50.852;15.602;2022-07-22T07:34:47;11.73;;;8.02;;
30048;SDS011;16879;50.852;15.602;2022-07-22T07:37:13;8.68;;;7.88;;
30048;SDS011;16879;50.852;15.602;2022-07-22T07:39:39;7.88;;;7.18;;
30048;SDS011;16879;50.852;15.602;2022-07-22T07:42:04;7.18;;;6.50;;
30048;SDS011;16879;50.852;15.602;2022-07-22T07:44:30;7.95;;;7.18;;
30048;SDS011;16879;50.852;15.602;2022-07-22T07:46:56;10.35;;;7.70;;
30048;SDS011;16879;50.852;15.602;2022-07-22T07:49:22;8.13;;;7.43;;
30048;SDS011;16879;50.852;15.602;2022-07-22T07:51:48;6.97;;;6.38;;
30048;SDS011;16879;50.852;15.602;2022-07-22T07:54:14;8.88;;;6.90;;
30048;SDS011;16879;50.852;15.602;2022-07-22T07:56:40;7.75;;;6.68;;
30048;SDS011;16879;50.852;15.602;2022-07-22T07:59:06;7.95;;;7.15;;
30048;SDS011;16879;50.852;15.602;2022-07-22T08:01:32;8.15;;;7.00;;
30048;SDS011;16879;50.852;15.602;2022-07-22T08:03:58;7.70;;;7.00;;
30048;SDS011;16879;50.852;15.602;2022-07-22T08:06:24;9.82;;;7.55;;
30048;SDS011;16879;50.852;15.602;2022-07-22T08:08:49;8.05;;;7.35;;
30048;SDS011;16879;50.852;15.602;2022-07-22T08:11:15;8.27;;;7.47;;
30048;SDS011;16879;50.852;15.602;2022-07-22T08:13:41;9.32;;;7.65;;
30048;SDS011;16879;50.852;15.602;2022-07-22T08:16:07;7.78;;;7.00;;
30048;SDS011;16879;50.852;15.602;2022-07-22T08:18:33;7.57;;;6.03;;
30048;SDS011;16879;50.852;15.602;2022-07-22T08:20:58;8.05;;;6.28;;
30048;SDS011;16879;50.852;15.602;2022-07-22T08:23:24;10.10;;;6.70;;
30048;SDS011;16879;50.852;15.602;2022-07-22T08:25:50;6.50;;;6.00;;
30048;SDS011;16879;50.852;15.602;2022-07-22T08:28:16;8.13;;;6.20;;
30048;SDS011;16879;50.852;15.602;2022-07-22T08:30:42;8.10;;;6.28;;
30048;SDS011;16879;50.852;15.602;2022-07-22T08:33:08;7.68;;;5.85;;
30048;SDS011;16879;50.852;15.602;2022-07-22T08:35:34;6.10;;;5.60;;
30048;SDS011;16879;50.852;15.602;2022-07-22T08:38:00;8.50;;;6.70;;
30048;SDS011;16879;50.852;15.602;2022-07-22T08:40:26;6.93;;;6.35;;
30048;SDS011;16879;50.852;15.602;2022-07-22T08:42:52;7.05;;;6.32;;
30048;SDS011;16879;50.852;15.602;2022-07-22T08:45:18;6.30;;;5.75;;
30048;SDS011;16879;50.852;15.602;2022-07-22T08:47:49;6.80;;;6.20;;
30048;SDS011;16879;50.852;15.602;2022-07-22T08:50:16;6.95;;;6.32;;
30048;SDS011;16879;50.852;15.602;2022-07-22T08:52:43;7.20;;;6.38;;
30048;SDS011;16879;50.852;15.602;2022-07-22T08:55:09;7.47;;;5.93;;
30048;SDS011;16879;50.852;15.602;2022-07-22T08:57:35;6.45;;;5.95;;
30048;SDS011;16879;50.852;15.602;2022-07-22T09:00:07;6.72;;;6.20;;
30048;SDS011;16879;50.852;15.602;2022-07-22T09:02:37;7.68;;;6.65;;
30048;SDS011;16879;50.852;15.602;2022-07-22T09:05:05;7.28;;;6.68;;
30048;SDS011;16879;50.852;15.602;2022-07-22T09:07:37;7.40;;;6.70;;
30048;SDS011;16879;50.852;15.602;2022-07-22T09:10:11;7.97;;;6.05;;
30048;SDS011;16879;50.852;15.602;2022-07-22T09:12:50;7.03;;;6.13;;
30048;SDS011;16879;50.852;15.602;2022-07-22T09:15:27;6.38;;;5.82;;
30048;SDS011;16879;50.852;15.602;2022-07-22T09:17:55;5.68;;;5.03;;
30048;SDS011;16879;50.852;15.602;2022-07-22T09:20:21;5.82;;;5.38;;
30048;SDS011;16879;50.852;15.602;2022-07-22T09:22:48;6.55;;;5.90;;
30048;SDS011;16879;50.852;15.602;2022-07-22T09:30:46;6.28;;;5.75;;
30048;SDS011;16879;50.852;15.602;2022-07-22T09:33:14;8.50;;;6.60;;
30048;SDS011;16879;50.852;15.602;2022-07-22T09:35:40;9.90;;;6.45;;
30048;SDS011;16879;50.852;15.602;2022-07-22T09:38:11;6.90;;;6.20;;
30048;SDS011;16879;50.852;15.602;2022-07-22T09:40:38;7.40;;;6.70;;
30048;SDS011;16879;50.852;15.602;2022-07-22T09:43:08;7.45;;;6.75;;
30048;SDS011;16879;50.852;15.602;2022-07-22T09:46:11;7.65;;;6.88;;
30048;SDS011;16879;50.852;15.602;2022-07-22T09:48:30;7.18;;;6.47;;
30048;SDS011;16879;50.852;15.602;2022-07-22T09:50:56;6.93;;;6.35;;
30048;SDS011;16879;50.852;15.602;2022-07-22T09:53:24;8.00;;;6.47;;
30048;SDS011;16879;50.852;15.602;2022-07-22T09:55:52;8.00;;;6.50;;
30048;SDS011;16879;50.852;15.602;2022-07-22T09:58:18;7.20;;;6.50;;
30048;SDS011;16879;50.852;15.602;2022-07-22T10:00:45;8.73;;;6.28;;
30048;SDS011;16879;50.852;15.602;2022-07-22T10:03:24;7.00;;;6.40;;
30048;SDS011;16879;50.852;15.602;2022-07-22T10:05:56;7.10;;;6.40;;
30048;SDS011;16879;50.852;15.602;2022-07-22T10:08:26;7.28;;;6.50;;
30048;SDS011;16879;50.852;15.602;2022-07-22T10:10:58;6.32;;;5.82;;
30048;SDS011;16879;50.852;15.602;2022-07-22T10:13:29;8.10;;;7.22;;
30048;SDS011;16879;50.852;15.602;2022-07-22T10:15:56;7.05;;;6.45;;
30048;SDS011;16879;50.852;15.602;2022-07-22T10:18:23;7.15;;;6.45;;
30048;SDS011;16879;50.852;15.602;2022-07-22T10:21:07;7.18;;;6.53;;
30048;SDS011;16879;50.852;15.602;2022-07-22T10:23:36;7.88;;;6.57;;
30048;SDS011;16879;50.852;15.602;2022-07-22T10:26:22;7.45;;;6.85;;
30048;SDS011;16879;50.852;15.602;2022-07-22T10:40:15;7.30;;;6.60;;
30048;SDS011;16879;50.852;15.602;2022-07-22T10:43:18;7.28;;;6.55;;
30048;SDS011;16879;50.852;15.602;2022-07-22T10:48:07;6.43;;;5.90;;
30048;SDS011;16879;50.852;15.602;2022-07-22T10:53:04;7.90;;;7.00;;
30048;SDS011;16879;50.852;15.602;2022-07-22T10:55:31;8.38;;;6.10;;
30048;SDS011;16879;50.852;15.602;2022-07-22T10:57:58;7.20;;;6.30;;
30048;SDS011;16879;50.852;15.602;2022-07-22T11:00:24;6.85;;;6.15;;
30048;SDS011;16879;50.852;15.602;2022-07-22T11:02:51;6.32;;;5.85;;
30048;SDS011;16879;50.852;15.602;2022-07-22T11:05:24;6.53;;;6.03;;
30048;SDS011;16879;50.852;15.602;2022-07-22T11:07:51;7.75;;;6.90;;
30048;SDS011;16879;50.852;15.602;2022-07-22T11:10:18;7.97;;;7.00;;
30048;SDS011;16879;50.852;15.602;2022-07-22T11:12:49;7.07;;;6.45;;
30048;SDS011;16879;50.852;15.602;2022-07-22T11:15:18;7.05;;;6.30;;
30048;SDS011;16879;50.852;15.602;2022-07-22T11:17:49;6.90;;;6.30;;
30048;SDS011;16879;50.852;15.602;2022-07-22T11:20:20;6.32;;;5.82;;
30048;SDS011;16879;50.852;15.602;2022-07-22T11:22:46;7.03;;;6.07;;
30048;SDS011;16879;50.852;15.602;2022-07-22T11:25:12;7.60;;;6.82;;
30048;SDS011;16879;50.852;15.602;2022-07-22T11:27:47;8.15;;;7.43;;
30048;SDS011;16879;50.852;15.602;2022-07-22T11:30:22;7.53;;;6.70;;
30048;SDS011;16879;50.852;15.602;2022-07-22T11:32:48;7.43;;;6.53;;
30048;SDS011;16879;50.852;15.602;2022-07-22T11:35:14;6.75;;;6.05;;
30048;SDS011;16879;50.852;15.602;2022-07-22T11:37:40;10.23;;;6.53;;
30048;SDS011;16879;50.852;15.602;2022-07-22T11:40:07;6.82;;;6.13;;
30048;SDS011;16879;50.852;15.602;2022-07-22T11:42:34;9.13;;;6.80;;
30048;SDS011;16879;50.852;15.602;2022-07-22T11:45:01;8.00;;;5.72;;
30048;SDS011;16879;50.852;15.602;2022-07-22T11:47:27;9.40;;;6.55;;
30048;SDS011;16879;50.852;15.602;2022-07-22T11:49:53;7.90;;;6.25;;
30048;SDS011;16879;50.852;15.602;2022-07-22T11:52:20;5.97;;;5.47;;
30048;SDS011;16879;50.852;15.602;2022-07-22T11:54:47;7.15;;;5.85;;
30048;SDS011;16879;50.852;15.602;2022-07-22T11:57:17;6.63;;;6.05;;
30048;SDS011;16879;50.852;15.602;2022-07-22T11:59:47;6.80;;;6.30;;
30048;SDS011;16879;50.852;15.602;2022-07-22T12:02:13;6.47;;;5.93;;
30048;SDS011;16879;50.852;15.602;2022-07-22T12:04:43;6.85;;;6.03;;
30048;SDS011;16879;50.852;15.602;2022-07-22T12:07:12;7.00;;;6.30;;
30048;SDS011;16879;50.852;15.602;2022-07-22T12:09:38;5.88;;;5.38;;
30048;SDS011;16879;50.852;15.602;2022-07-22T12:12:06;6.97;;;6.45;;
30048;SDS011;16879;50.852;15.602;2022-07-22T12:14:33;7.20;;;6.22;;
30048;SDS011;16879;50.852;15.602;2022-07-22T12:17:17;7.32;;;5.93;;
30048;SDS011;16879;50.852;15.602;2022-07-22T12:19:43;7.53;;;6.10;;
30048;SDS011;16879;50.852;15.602;2022-07-22T12:22:09;7.95;;;6.28;;
30048;SDS011;16879;50.852;15.602;2022-07-22T12:24:42;7.45;;;5.68;;
30048;SDS011;16879;50.852;15.602;2022-07-22T12:27:11;6.10;;;5.60;;
30048;SDS011;16879;50.852;15.602;2022-07-22T12:40:00;9.05;;;6.05;;
30048;SDS011;16879;50.852;15.602;2022-07-22T12:43:04;6.13;;;5.25;;
30048;SDS011;16879;50.852;15.602;2022-07-22T12:45:37;6.60;;;5.85;;
30048;SDS011;16879;50.852;15.602;2022-07-22T12:48:09;7.63;;;5.50;;
30048;SDS011;16879;50.852;15.602;2022-07-22T12:50:40;6.32;;;5.65;;
30048;SDS011;16879;50.852;15.602;2022-07-22T12:55:42;6.22;;;5.47;;
30048;SDS011;16879;50.852;15.602;2022-07-22T12:58:14;5.57;;;5.10;;
30048;SDS011;16879;50.852;15.602;2022-07-22T13:00:42;7.20;;;6.05;;
30048;SDS011;16879;50.852;15.602;2022-07-22T13:03:09;6.40;;;5.90;;
30048;SDS011;16879;50.852;15.602;2022-07-22T13:05:37;5.70;;;5.28;;
30048;SDS011;16879;50.852;15.602;2022-07-22T13:08:03;9.00;;;5.80;;
30048;SDS011;16879;50.852;15.602;2022-07-22T13:10:30;6.50;;;6.00;;
30048;SDS011;16879;50.852;15.602;2022-07-22T13:12:56;12.55;;;7.00;;
30048;SDS011;16879;50.852;15.602;2022-07-22T13:15:22;7.10;;;6.40;;
30048;SDS011;16879;50.852;15.602;2022-07-22T13:17:48;6.43;;;5.65;;
30048;SDS011;16879;50.852;15.602;2022-07-22T13:20:15;6.32;;;5.72;;
30048;SDS011;16879;50.852;15.602;2022-07-22T13:22:42;9.20;;;6.88;;
30048;SDS011;16879;50.852;15.602;2022-07-22T13:25:08;6.82;;;6.10;;
30048;SDS011;16879;50.852;15.602;2022-07-22T13:27:34;6.00;;;5.50;;
30048;SDS011;16879;50.852;15.602;2022-07-22T13:30:00;6.57;;;6.03;;
30048;SDS011;16879;50.852;15.602;2022-07-22T13:32:26;8.70;;;6.32;;
30048;SDS011;16879;50.852;15.602;2022-07-22T13:34:52;6.95;;;6.22;;
30048;SDS011;16879;50.852;15.602;2022-07-22T13:37:19;8.27;;;5.80;;
30048;SDS011;16879;50.852;15.602;2022-07-22T13:39:46;7.05;;;6.45;;
30048;SDS011;16879;50.852;15.602;2022-07-22T13:42:14;8.80;;;6.45;;
30048;SDS011;16879;50.852;15.602;2022-07-22T13:44:44;6.47;;;5.88;;
30048;SDS011;16879;50.852;15.602;2022-07-22T13:47:11;5.70;;;5.20;;
30048;SDS011;16879;50.852;15.602;2022-07-22T13:49:37;7.28;;;6.60;;
30048;SDS011;16879;50.852;15.602;2022-07-22T13:52:03;6.63;;;6.03;;
30048;SDS011;16879;50.852;15.602;2022-07-22T13:54:30;6.50;;;5.90;;
30048;SDS011;16879;50.852;15.602;2022-07-22T13:56:56;7.00;;;6.50;;
30048;SDS011;16879;50.852;15.602;2022-07-22T13:59:23;6.78;;;6.18;;
30048;SDS011;16879;50.852;15.602;2022-07-22T14:01:49;6.32;;;5.70;;
30048;SDS011;16879;50.852;15.602;2022-07-22T14:04:16;12.38;;;11.35;;
30048;SDS011;16879;50.852;15.602;2022-07-22T14:06:49;17.13;;;13.18;;
30048;SDS011;16879;50.852;15.602;2022-07-22T14:09:15;7.80;;;6.72;;
30048;SDS011;16879;50.852;15.602;2022-07-22T14:11:41;10.02;;;7.57;;
30048;SDS011;16879;50.852;15.602;2022-07-22T14:14:07;8.25;;;7.30;;
30048;SDS011;16879;50.852;15.602;2022-07-22T14:16:34;7.03;;;6.43;;
30048;SDS011;16879;50.852;15.602;2022-07-22T14:19:06;7.13;;;6.45;;
30048;SDS011;16879;50.852;15.602;2022-07-22T14:21:37;7.05;;;5.82;;
30048;SDS011;16879;50.852;15.602;2022-07-22T14:24:06;6.45;;;5.95;;
30048;SDS011;16879;50.852;15.602;2022-07-22T14:26:33;9.00;;;7.25;;
30048;SDS011;16879;50.852;15.602;2022-07-22T14:28:59;7.22;;;6.57;;
30048;SDS011;16879;50.852;15.602;2022-07-22T14:31:26;9.25;;;6.65;;
30048;SDS011;16879;50.852;15.602;2022-07-22T14:33:51;8.23;;;6.22;;
30048;SDS011;16879;50.852;15.602;2022-07-22T14:36:18;6.70;;;6.18;;
30048;SDS011;16879;50.852;15.602;2022-07-22T14:38:44;6.90;;;6.25;;
30048;SDS011;16879;50.852;15.602;2022-07-22T14:41:10;10.52;;;6.38;;
30048;SDS011;16879;50.852;15.602;2022-07-22T14:43:36;6.95;;;6.22;;
30048;SDS011;16879;50.852;15.602;2022-07-22T14:46:03;7.15;;;6.45;;
30048;SDS011;16879;50.852;15.602;2022-07-22T14:48:30;6.72;;;6.13;;
30048;SDS011;16879;50.852;15.602;2022-07-22T14:50:56;6.45;;;5.85;;
30048;SDS011;16879;50.852;15.602;2022-07-22T14:53:22;8.20;;;6.72;;
30048;SDS011;16879;50.852;15.602;2022-07-22T14:55:49;6.82;;;6.13;;
30048;SDS011;16879;50.852;15.602;2022-07-22T14:58:15;7.50;;;5.75;;
30048;SDS011;16879;50.852;15.602;2022-07-22T15:00:41;7.47;;;6.60;;
30048;SDS011;16879;50.852;15.602;2022-07-22T15:03:09;6.97;;;6.32;;
30048;SDS011;16879;50.852;15.602;2022-07-22T15:05:34;6.25;;;5.60;;
30048;SDS011;16879;50.852;15.602;2022-07-22T15:08:00;6.85;;;6.15;;